createdAt,value
2018-02-04T01:02:16.734Z,21.67
2018-02-04T01:04:50.549Z,23.03
2018-02-04T01:07:32.654Z,19.43
2018-02-04T01:20:40.084Z,21.70
2018-02-04T01:26:07.329Z,17.98
2018-02-04T01:28:53.404Z,18.43
2018-02-04T01:31:43.042Z,19.83
2018-02-04T01:34:16.864Z,18.87
2018-02-04T01:36:49.277Z,23.00
2018-02-04T01:39:23.681Z,19.27
2018-02-04T01:44:38.983Z,20.13
2018-02-04T01:50:10.240Z,17.27
2018-02-04T01:52:44.460Z,15.70
2018-02-04T01:55:21.195Z,18.23
2018-02-04T01:58:12.644Z,18.55
2018-02-04T02:00:52.780Z,18.77
2018-02-04T02:23:51.763Z,17.75
2018-02-04T02:26:31.208Z,15.40
2018-02-04T02:29:11.775Z,16.43
2018-02-04T02:31:51.699Z,17.70
2018-02-04T02:34:28.020Z,13.60
2018-02-04T02:37:06.732Z,20.80
2018-02-04T02:40:11.875Z,17.47
2018-02-04T02:42:45.060Z,15.93
2018-02-04T02:45:29.734Z,16.90
2018-02-04T02:54:18.126Z,12.40
2018-02-04T02:56:58.554Z,14.17
2018-02-04T02:59:39.179Z,15.57
2018-02-04T03:02:15.545Z,14.70
2018-02-04T03:04:49.001Z,14.07
2018-02-04T03:07:25.642Z,14.53
2018-02-04T03:12:45.138Z,15.80
2018-02-04T03:18:22.871Z,15.17
2018-02-04T03:20:57.231Z,16.10
2018-02-04T03:23:34.617Z,13.37
2018-02-04T03:26:05.972Z,14.53
2018-02-04T03:28:42.901Z,14.50
2018-02-04T03:31:15.091Z,17.53
2018-02-04T03:33:49.336Z,13.45
2018-02-04T03:45:02.914Z,11.40
2018-02-04T03:47:33.123Z,11.90
2018-02-04T03:50:19.930Z,11.93
2018-02-04T03:52:53.912Z,12.23
2018-02-04T03:55:28.783Z,10.17
2018-02-04T03:58:01.715Z,9.80
2018-02-04T04:00:38.315Z,9.63
2018-02-04T04:03:22.153Z,11.10
2018-02-04T04:05:59.252Z,9.20
2018-02-04T04:08:35.543Z,8.37
2018-02-04T04:11:07.807Z,8.97
2018-02-04T04:13:41.095Z,8.00
2018-02-04T04:16:18.644Z,7.10
2018-02-04T04:18:50.374Z,7.40
2018-02-04T04:21:38.869Z,7.50
2018-02-04T04:24:11.576Z,6.23
2018-02-04T04:26:46.977Z,7.30
2018-02-04T04:29:19.783Z,5.40
2018-02-04T04:31:57.703Z,6.27
2018-02-04T04:37:11.848Z,4.87
2018-02-04T04:39:48.534Z,6.07
2018-02-04T04:42:26.228Z,8.10
2018-02-04T04:45:01.450Z,4.77
2018-02-04T04:47:36.973Z,5.23
2018-02-04T04:50:16.815Z,5.13
2018-02-04T04:55:57.656Z,5.60
2018-02-04T04:58:39.666Z,4.90
2018-02-04T05:03:54.040Z,7.43
2018-02-04T05:06:33.910Z,5.20
2018-02-04T05:14:57.464Z,6.50
2018-02-04T05:17:32.073Z,6.13
2018-02-04T05:20:05.171Z,6.20
2018-02-04T05:22:42.873Z,6.07
2018-02-04T05:25:17.970Z,5.83
2018-02-04T05:27:50.739Z,4.63
2018-02-04T05:30:23.321Z,5.03
2018-02-04T05:33:00.946Z,6.00
2018-02-04T05:38:15.815Z,4.77
2018-02-04T05:40:48.292Z,5.00
2018-02-04T05:43:25.910Z,5.10
2018-02-04T05:46:07.858Z,6.00
2018-02-04T05:48:43.864Z,7.20
2018-02-04T05:51:21.809Z,6.27
2018-02-04T06:19:19.716Z,7.20
2018-02-04T06:21:57.558Z,9.27
2018-02-04T06:24:37.216Z,7.30
2018-02-04T06:27:16.986Z,8.00
2018-02-04T06:30:00.820Z,7.60
2018-02-04T06:32:35.238Z,7.57
2018-02-04T06:35:10.584Z,7.00
2018-02-04T06:37:57.311Z,7.30
2018-02-04T06:40:37.533Z,8.13
2018-02-04T06:46:03.854Z,7.83
2018-02-04T06:48:45.649Z,8.73
2018-02-04T06:51:30.942Z,8.73
2018-02-04T06:57:07.426Z,7.73
2018-02-04T07:05:48.724Z,10.27
2018-02-04T07:20:46.202Z,7.67
2018-02-04T07:42:19.560Z,11.27
2018-02-04T09:09:15.335Z,16.83
2018-02-04T18:18:05.134Z,20.23
2018-02-04T18:20:58.196Z,27.63
2018-02-04T18:24:38.946Z,29.33
2018-02-04T18:40:44.730Z,21.87
2018-02-04T18:46:30.519Z,27.50
2018-02-04T18:55:29.305Z,27.70
2018-02-04T20:45:27.920Z,32.37
